Airfield :
LOGIN :

Register | Disclaimer

   EN    FR    IT 

 










Legend :    VFR   Marginal VFR   IFR   Intensive IFR   Very Intensive IFR
Visi :
Ceiling :
>= 8 km
>= 3000ft
5 to 8 km
1000 to 3000 ft
1500m to 5 km
500 to 1000 ft
800 to 1500m
200 to 500 ft
< 800m
< 200 ft
Symbols :   Thunderstorms  Fog  Heavy snow  Heavy precipitations  Wind > 20 kt
SIGMETs :     Misc.  Thunderstorms  Icing  Turbulence  Mountain Waves  Volcanic Ashes






- Airport Elevation : 416 ft
- IATA code : OVD


LEAS - Asturias

CURRENT METAR :
  • 091500Z 31010KT 6000 -DZ FEW016 BKN025 13/09 Q1032 TEMPO 3000 -RADZ BKN012

EXPIRED METARs :
  • 091430Z 30011KT 270V330 8000 SCT022 SCT030 13/09 Q1032 TEMPO 3000 -RADZ BKN012
  • 091400Z 29012KT 7000 -DZ SCT026 SCT035 13/09 Q1032 TEMPO 3000 -RADZ BKN012
  • 091330Z 29010KT 260V320 7000 -DZ SCT024 BKN050 13/09 Q1032 TEMPO 3000 -RADZ BKN012
  • 091300Z 29011KT 260V320 9999 SCT027 BKN045 13/08 Q1032 NOSIG
  • 091230Z 29011KT 9999 FEW027 BKN045 13/09 Q1032 NOSIG

TAF TAF LEAS
Valid from the 09 at 15:00 until the 10 at 15:00 UTC


091400Z 0915/1015 26010KT 9999 BKN040 TX17/1014Z TN05/1007Z
PROB30
TEMPO 0915/0918 3000 -RADZ BKN010 BKN014
BECMG 0916/0920 VRB03KT
BECMG 1003/1006 22010KT



MET'MAP, your aeronautical weather chart ! - Copyright ORBIFLY December 2007 - Disclaimer

ORBIFLY MET'MAP TEAM :

Programming & Development : Alexandra Zaïnal
Concept & original design : Baudouin d'Aumeries
Assistance for programming : Marc-Olivier Méhu
Technical & hardware support : Manuel Goepfert

Contact : metmap@orbifly.com




SOURCES & CREDITS :

   NOAA